createdAt,value
2019-02-23T00:02:27.408Z,3.90
2019-02-23T00:04:54.812Z,3.80
2019-02-23T00:07:22.243Z,3.80
2019-02-23T00:09:49.804Z,3.80
2019-02-23T00:12:17.215Z,3.70
2019-02-23T00:14:44.615Z,3.60
2019-02-23T00:17:12.059Z,3.60
2019-02-23T00:19:39.477Z,3.60
2019-02-23T00:22:06.883Z,3.60
2019-02-23T00:24:34.939Z,3.50
2019-02-23T00:27:02.359Z,3.50
2019-02-23T00:29:31.560Z,3.50
2019-02-23T00:31:59.300Z,3.40
2019-02-23T00:34:28.824Z,3.40
2019-02-23T00:36:56.605Z,3.40
2019-02-23T00:39:24.072Z,3.30
2019-02-23T00:41:51.490Z,3.40
2019-02-23T00:44:18.909Z,3.30
2019-02-23T00:46:46.534Z,3.30
2019-02-23T00:49:13.939Z,3.30
2019-02-23T00:51:41.368Z,3.20
2019-02-23T00:54:08.819Z,3.30
2019-02-23T00:56:36.214Z,3.20
2019-02-23T00:59:03.619Z,3.20
2019-02-23T01:01:31.076Z,3.20
2019-02-23T01:03:58.557Z,3.10
2019-02-23T01:06:25.988Z,3.10
2019-02-23T01:08:53.558Z,3.10
2019-02-23T01:11:20.966Z,3.10
2019-02-23T01:13:48.383Z,3.10
2019-02-23T01:16:16.184Z,3.00
2019-02-23T01:18:43.596Z,3.00
2019-02-23T01:21:10.996Z,3.00
2019-02-23T01:23:38.443Z,2.90
2019-02-23T01:26:05.903Z,2.90
2019-02-23T01:28:33.302Z,3.00
2019-02-23T01:31:00.963Z,2.90
2019-02-23T01:33:28.648Z,2.80
2019-02-23T01:35:56.043Z,2.70
2019-02-23T01:38:23.963Z,2.70
2019-02-23T01:40:51.361Z,2.70
2019-02-23T01:43:18.767Z,2.70
2019-02-23T01:45:46.551Z,2.60
2019-02-23T01:48:13.956Z,2.60
2019-02-23T01:50:41.380Z,2.50
2019-02-23T01:53:09.143Z,2.50
2019-02-23T01:55:36.552Z,2.40
2019-02-23T01:58:04.159Z,2.40
2019-02-23T02:00:32.686Z,2.40
2019-02-23T02:03:00.089Z,2.40
2019-02-23T02:05:27.505Z,2.40
2019-02-23T02:07:55.336Z,2.20
2019-02-23T02:10:22.749Z,2.10
2019-02-23T02:12:50.159Z,2.10
2019-02-23T02:15:17.595Z,2.00
2019-02-23T02:17:45.094Z,2.00
2019-02-23T02:20:12.496Z,1.90
2019-02-23T02:22:39.946Z,1.90
2019-02-23T02:25:07.499Z,1.80
2019-02-23T02:27:34.911Z,1.80
2019-02-23T02:30:02.479Z,1.70
2019-02-23T02:32:30.391Z,1.70
2019-02-23T02:34:58.803Z,1.60
2019-02-23T02:37:26.269Z,1.60
2019-02-23T02:39:53.701Z,1.60
2019-02-23T02:42:21.087Z,1.60
2019-02-23T02:44:48.918Z,1.50
2019-02-23T02:47:16.336Z,1.50
2019-02-23T02:49:43.751Z,1.40
2019-02-23T02:52:11.180Z,1.30
2019-02-23T02:54:38.582Z,1.20
2019-02-23T02:57:07.849Z,1.10
2019-02-23T02:59:35.441Z,1.10
2019-02-23T03:02:03.539Z,1.00
2019-02-23T03:04:30.966Z,1.10
2019-02-23T03:06:58.414Z,1.10
2019-02-23T03:09:25.814Z,1.10
2019-02-23T03:11:53.224Z,1.20
2019-02-23T03:14:20.819Z,1.30
2019-02-23T03:16:48.225Z,1.40
2019-02-23T03:19:15.641Z,1.50
2019-02-23T03:21:43.185Z,1.40
2019-02-23T03:24:10.577Z,1.50
2019-02-23T03:26:37.973Z,1.50
2019-02-23T03:29:05.429Z,1.40
2019-02-23T03:31:33.100Z,1.40
2019-02-23T03:34:00.864Z,1.40
2019-02-23T03:36:28.343Z,1.40
2019-02-23T03:38:55.739Z,1.30
2019-02-23T03:41:23.139Z,1.30
2019-02-23T03:43:50.574Z,1.30
2019-02-23T03:46:18.029Z,1.40
2019-02-23T03:48:45.427Z,1.40
2019-02-23T03:51:13.056Z,1.40
2019-02-23T03:53:40.467Z,1.40
2019-02-23T03:56:07.868Z,1.30
2019-02-23T03:58:35.443Z,1.40
2019-02-23T04:01:02.881Z,1.40
2019-02-23T04:03:30.279Z,1.40
2019-02-23T04:05:57.729Z,1.40
2019-02-23T04:08:25.186Z,1.40
2019-02-23T04:10:52.588Z,1.40
2019-02-23T04:13:20.172Z,1.50
2019-02-23T04:15:47.669Z,1.50
2019-02-23T04:18:15.074Z,1.60
2019-02-23T04:20:43.119Z,1.60
2019-02-23T04:23:10.511Z,1.60
2019-02-23T04:25:37.928Z,1.70
2019-02-23T04:28:05.488Z,1.70
2019-02-23T04:30:33.042Z,1.70
2019-02-23T04:33:00.747Z,1.60
2019-02-23T04:35:28.479Z,1.60
2019-02-23T04:37:55.880Z,1.60
2019-02-23T04:40:23.288Z,1.70
2019-02-23T04:42:50.888Z,1.70
2019-02-23T04:45:18.350Z,1.80
2019-02-23T04:47:45.831Z,1.80
2019-02-23T04:50:13.383Z,1.80
2019-02-23T04:52:40.795Z,1.70
2019-02-23T04:55:09.411Z,1.70
2019-02-23T04:57:37.099Z,1.70
2019-02-23T05:00:05.603Z,1.70
2019-02-23T05:02:33.029Z,1.70
2019-02-23T05:05:00.475Z,1.70
2019-02-23T05:07:27.868Z,1.70
2019-02-23T05:09:55.291Z,1.70
2019-02-23T05:12:22.716Z,1.70
2019-02-23T05:14:50.123Z,1.70
2019-02-23T05:17:17.553Z,1.60
2019-02-23T05:19:45.387Z,1.50
2019-02-23T05:22:12.812Z,1.50
2019-02-23T05:24:40.222Z,1.50
2019-02-23T05:27:07.643Z,1.40
2019-02-23T05:29:35.076Z,1.30
2019-02-23T05:32:03.835Z,1.30
2019-02-23T05:34:31.692Z,1.30
2019-02-23T05:36:59.103Z,1.30
2019-02-23T05:39:29.429Z,1.30
2019-02-23T05:41:58.687Z,1.20
2019-02-23T05:44:26.091Z,1.10
2019-02-23T05:46:53.502Z,1.00
2019-02-23T05:49:21.083Z,1.00
2019-02-23T05:51:48.558Z,0.90
2019-02-23T05:54:16.203Z,0.80
2019-02-23T05:56:43.628Z,0.80
2019-02-23T05:59:11.032Z,0.70
2019-02-23T06:01:38.430Z,0.70
2019-02-23T06:04:05.884Z,0.70
2019-02-23T06:06:33.307Z,0.60
2019-02-23T06:09:00.699Z,0.50
2019-02-23T06:11:28.134Z,0.50
2019-02-23T06:13:55.535Z,0.50
2019-02-23T06:16:22.958Z,0.40
2019-02-23T06:18:52.004Z,0.30
2019-02-23T06:21:19.372Z,0.30
2019-02-23T06:23:46.784Z,0.20
2019-02-23T06:26:14.331Z,0.20
2019-02-23T06:28:41.739Z,0.20
2019-02-23T06:31:09.133Z,0.20
2019-02-23T06:33:36.858Z,0.20
2019-02-23T06:36:04.721Z,0.20
2019-02-23T06:38:32.152Z,0.20
2019-02-23T06:40:59.598Z,0.20
2019-02-23T06:43:27.019Z,0.10
2019-02-23T06:45:54.447Z,0.30
2019-02-23T06:48:22.011Z,0.30
2019-02-23T06:50:49.464Z,0.30
2019-02-23T06:53:36.409Z,0.20
2019-02-23T06:56:04.496Z,0.20
2019-02-23T06:58:31.917Z,0.20
2019-02-23T07:00:59.990Z,0.20
2019-02-23T07:03:27.407Z,0.20
2019-02-23T07:05:54.832Z,0.20
2019-02-23T07:08:22.380Z,0.20
2019-02-23T07:10:49.804Z,0.30
2019-02-23T07:13:17.195Z,0.30
2019-02-23T07:15:44.667Z,0.40
2019-02-23T07:18:12.087Z,0.50
2019-02-23T07:20:44.272Z,0.50
2019-02-23T07:23:08.858Z,0.70
2019-02-23T07:25:36.329Z,0.70
2019-02-23T07:28:03.858Z,0.70
2019-02-23T07:30:31.610Z,0.80
2019-02-23T07:33:00.224Z,0.90
2019-02-23T07:35:27.714Z,0.90
2019-02-23T07:37:55.272Z,1.00
2019-02-23T07:40:22.683Z,1.10
2019-02-23T07:42:50.135Z,1.20
2019-02-23T07:45:17.571Z,1.20
2019-02-23T07:47:44.979Z,1.10
2019-02-23T07:50:12.406Z,1.20
2019-02-23T07:52:39.838Z,1.20
2019-02-23T07:55:07.657Z,1.20
2019-02-23T07:57:35.255Z,1.30
2019-02-23T08:00:02.725Z,1.30
2019-02-23T08:02:30.128Z,1.30
2019-02-23T08:04:57.547Z,1.50
2019-02-23T08:07:25.003Z,1.40
2019-02-23T08:09:52.419Z,1.50
2019-02-23T08:12:19.823Z,1.50
2019-02-23T08:14:47.435Z,1.60
2019-02-23T08:17:14.852Z,1.70
2019-02-23T08:19:42.246Z,1.70
2019-02-23T08:22:09.695Z,1.70
2019-02-23T08:24:37.134Z,1.50
2019-02-23T08:27:04.548Z,1.60
2019-02-23T08:29:32.221Z,1.60
2019-02-23T08:31:59.631Z,1.80
2019-02-23T08:34:27.036Z,1.90
2019-02-23T08:36:56.300Z,1.90
2019-02-23T08:39:23.716Z,1.80
2019-02-23T08:41:52.405Z,1.90
2019-02-23T08:44:20.003Z,1.90
2019-02-23T08:46:47.626Z,2.00
2019-02-23T08:49:15.030Z,2.10
2019-02-23T08:51:42.483Z,2.20
2019-02-23T08:54:10.123Z,2.30
2019-02-23T08:56:38.900Z,2.40
2019-02-23T08:59:06.299Z,2.50
2019-02-23T09:01:33.693Z,2.60
2019-02-23T09:04:01.135Z,2.50
2019-02-23T09:06:28.552Z,2.50
2019-02-23T09:08:55.968Z,2.60
2019-02-23T09:11:23.501Z,2.60
2019-02-23T09:13:50.916Z,2.70
2019-02-23T09:16:18.334Z,2.80
2019-02-23T09:18:45.954Z,2.90
2019-02-23T09:21:13.371Z,2.90
2019-02-23T09:23:40.796Z,3.00
2019-02-23T09:26:08.454Z,3.10
2019-02-23T09:28:35.876Z,3.20
2019-02-23T09:31:03.686Z,3.30
2019-02-23T09:33:31.171Z,3.30
2019-02-23T09:35:58.571Z,3.30
2019-02-23T09:38:25.983Z,3.40
2019-02-23T09:40:53.419Z,3.60
2019-02-23T09:43:20.823Z,3.70
2019-02-23T09:45:48.227Z,3.70
2019-02-23T09:48:15.918Z,3.80
2019-02-23T09:50:43.329Z,3.90
2019-02-23T09:53:11.577Z,4.00
2019-02-23T09:55:39.188Z,4.10
2019-02-23T09:58:06.937Z,4.10
2019-02-23T10:00:35.560Z,4.10
2019-02-23T10:03:03.006Z,4.10
2019-02-23T10:05:30.414Z,4.20
2019-02-23T10:07:57.817Z,4.20
2019-02-23T10:10:25.437Z,4.30
2019-02-23T10:12:52.953Z,4.40
2019-02-23T10:15:20.477Z,4.50
2019-02-23T10:17:47.961Z,4.60
2019-02-23T10:20:15.382Z,4.70
2019-02-23T10:22:42.790Z,4.70
2019-02-23T10:25:10.350Z,4.80
2019-02-23T10:27:37.778Z,4.90
2019-02-23T10:30:06.291Z,4.90
2019-02-23T10:32:33.749Z,4.80
2019-02-23T10:35:01.127Z,4.90
2019-02-23T10:37:28.535Z,5.00
2019-02-23T10:39:56.015Z,4.60
2019-02-23T10:42:23.419Z,4.50
2019-02-23T10:44:50.821Z,4.50
2019-02-23T10:47:18.391Z,4.60
2019-02-23T10:49:45.795Z,4.80
2019-02-23T10:52:13.197Z,4.90
2019-02-23T10:54:40.694Z,4.90
2019-02-23T10:57:08.263Z,5.10
2019-02-23T10:59:35.856Z,5.10
2019-02-23T11:02:03.467Z,5.00
2019-02-23T11:04:30.875Z,4.90
2019-02-23T11:06:58.299Z,4.90
2019-02-23T11:09:31.788Z,4.90
2019-02-23T11:11:59.187Z,4.90
2019-02-23T11:14:26.604Z,4.80
2019-02-23T11:16:54.187Z,4.70
2019-02-23T11:19:21.603Z,4.80
2019-02-23T11:21:48.999Z,4.90
2019-02-23T11:24:18.475Z,4.90
2019-02-23T11:26:46.004Z,4.90
2019-02-23T11:29:13.415Z,5.00
2019-02-23T11:31:41.221Z,5.10
2019-02-23T11:34:08.629Z,5.10
2019-02-23T11:36:36.026Z,5.20
2019-02-23T11:39:04.517Z,5.10
2019-02-23T11:41:31.933Z,5.10
2019-02-23T11:43:59.236Z,5.30
2019-02-23T11:46:26.895Z,5.20
2019-02-23T11:48:54.353Z,5.30
2019-02-23T11:51:21.872Z,5.40
2019-02-23T11:53:54.928Z,5.50
2019-02-23T11:56:20.766Z,5.60
2019-02-23T11:58:48.671Z,5.70
2019-02-23T12:01:16.115Z,5.50
2019-02-23T12:03:43.507Z,5.70
2019-02-23T12:06:10.999Z,5.80
2019-02-23T12:08:38.531Z,5.90
2019-02-23T12:11:05.927Z,5.80
2019-02-23T12:13:33.353Z,6.00
2019-02-23T12:16:00.927Z,6.00
2019-02-23T12:18:28.325Z,6.10
2019-02-23T12:20:55.745Z,6.10
2019-02-23T12:23:23.331Z,6.00
2019-02-23T12:25:50.738Z,6.20
2019-02-23T12:28:18.156Z,6.30
2019-02-23T12:30:45.935Z,6.30
2019-02-23T12:33:13.346Z,6.30
2019-02-23T12:35:40.858Z,6.40
2019-02-23T12:38:08.517Z,6.50
2019-02-23T12:40:35.957Z,6.60
2019-02-23T12:43:03.374Z,6.70
2019-02-23T12:45:30.832Z,6.70
2019-02-23T12:47:58.223Z,6.70
2019-02-23T12:50:27.447Z,6.80
2019-02-23T12:52:54.875Z,6.90
2019-02-23T12:55:22.404Z,7.00
2019-02-23T12:57:50.083Z,6.90
2019-02-23T13:00:17.927Z,6.80
2019-02-23T13:02:45.407Z,6.70
2019-02-23T13:05:12.868Z,6.80
2019-02-23T13:07:40.347Z,7.00
2019-02-23T13:10:08.429Z,7.00
2019-02-23T13:13:19.839Z,7.00
2019-02-23T13:16:10.690Z,7.10
2019-02-23T13:19:28.819Z,7.10
2019-02-23T13:22:56.045Z,7.30
2019-02-23T13:25:59.380Z,7.30
2019-02-23T13:28:50.287Z,7.40
2019-02-23T13:31:40.359Z,7.30
2019-02-23T13:34:50.283Z,7.50
2019-02-23T13:38:05.220Z,7.60
2019-02-23T13:41:00.656Z,7.60
2019-02-23T13:44:11.471Z,7.70
2019-02-23T13:46:59.222Z,7.70
2019-02-23T13:50:21.103Z,7.70
2019-02-23T13:53:28.198Z,7.80
2019-02-23T13:56:42.909Z,7.80
2019-02-23T13:59:39.552Z,7.90
2019-02-23T14:02:52.326Z,7.50
2019-02-23T14:05:54.718Z,7.60
2019-02-23T14:09:00.974Z,7.60
2019-02-23T14:11:50.058Z,7.60
2019-02-23T14:14:36.951Z,7.50
2019-02-23T14:17:49.462Z,7.40
2019-02-23T14:20:39.643Z,7.30
2019-02-23T14:23:43.884Z,7.20
2019-02-23T14:26:56.966Z,7.10
2019-02-23T14:30:15.099Z,7.00
2019-02-23T14:33:17.959Z,6.80
2019-02-23T14:36:19.418Z,6.70
2019-02-23T14:39:27.615Z,6.70
2019-02-23T14:42:32.747Z,6.70
2019-02-23T14:45:28.060Z,6.40
2019-02-23T14:48:33.231Z,6.10
2019-02-23T14:51:48.894Z,5.90
2019-02-23T14:54:44.819Z,5.70
2019-02-23T14:57:46.030Z,5.60
2019-02-23T15:01:09.804Z,5.40
2019-02-23T15:04:22.375Z,5.30
2019-02-23T15:07:22.003Z,5.20
2019-02-23T15:10:16.769Z,5.10
2019-02-23T15:13:12.036Z,4.90
2019-02-23T15:16:24.638Z,4.90
2019-02-23T15:19:15.252Z,4.80
2019-02-23T15:22:27.147Z,4.80
2019-02-23T15:25:50.927Z,4.80
2019-02-23T15:28:46.710Z,4.70
2019-02-23T15:31:45.036Z,4.60
2019-02-23T15:34:51.227Z,4.50
2019-02-23T15:37:26.860Z,4.40
2019-02-23T15:40:31.217Z,4.40
2019-02-23T15:43:24.287Z,4.30
2019-02-23T15:46:12.900Z,4.20
2019-02-23T15:49:31.587Z,4.20
2019-02-23T15:52:00.469Z,4.10
2019-02-23T15:54:29.232Z,4.10
2019-02-23T15:56:56.918Z,4.00
2019-02-23T15:59:25.081Z,4.00
2019-02-23T16:01:52.468Z,3.80
2019-02-23T16:04:19.865Z,3.80
2019-02-23T16:06:47.276Z,3.80
2019-02-23T16:09:15.895Z,3.70
2019-02-23T16:11:45.272Z,3.70
2019-02-23T16:14:12.567Z,3.60
2019-02-23T16:16:39.958Z,3.60
2019-02-23T16:19:07.355Z,3.60
2019-02-23T16:21:34.826Z,3.60
2019-02-23T16:24:02.222Z,3.50
2019-02-23T16:26:29.643Z,3.50
2019-02-23T16:28:57.126Z,3.40
2019-02-23T16:31:24.544Z,3.40
2019-02-23T16:33:51.975Z,3.30
2019-02-23T16:36:19.516Z,3.30
2019-02-23T16:38:47.015Z,3.30
2019-02-23T16:41:14.509Z,3.20
2019-02-23T16:43:42.155Z,3.20
2019-02-23T16:46:09.611Z,3.10
2019-02-23T16:48:37.027Z,3.10
2019-02-23T16:51:04.663Z,3.10
2019-02-23T16:53:32.083Z,3.10
2019-02-23T16:55:59.507Z,3.00
2019-02-23T16:58:26.991Z,3.00
2019-02-23T17:00:54.722Z,3.00
2019-02-23T17:03:22.131Z,2.90
2019-02-23T17:05:49.615Z,2.80
2019-02-23T17:08:17.067Z,2.60
2019-02-23T17:10:44.465Z,2.60
2019-02-23T17:13:12.219Z,2.50
2019-02-23T17:15:39.627Z,2.40
2019-02-23T17:18:07.107Z,2.40
2019-02-23T17:20:34.819Z,2.30
2019-02-23T17:23:02.343Z,2.30
2019-02-23T17:25:29.823Z,2.20
2019-02-23T17:27:57.299Z,2.10
2019-02-23T17:30:24.711Z,2.00
2019-02-23T17:32:53.398Z,2.00
2019-02-23T17:35:20.835Z,1.90
2019-02-23T17:37:48.239Z,1.80
2019-02-23T17:40:15.684Z,1.80
2019-02-23T17:42:43.274Z,1.70
2019-02-23T17:45:10.708Z,1.70
2019-02-23T17:47:38.115Z,1.60
2019-02-23T17:50:05.583Z,1.60
2019-02-23T17:52:33.003Z,1.50
2019-02-23T17:55:00.400Z,1.40
2019-02-23T17:57:27.873Z,1.40
2019-02-23T17:59:55.479Z,1.30
2019-02-23T18:02:22.898Z,1.30
2019-02-23T18:04:50.363Z,1.30
2019-02-23T18:07:17.773Z,1.20
2019-02-23T18:09:45.211Z,1.10
2019-02-23T18:12:12.979Z,1.20
2019-02-23T18:14:40.625Z,1.10
2019-02-23T18:17:09.846Z,1.00
2019-02-23T18:19:37.510Z,1.00
2019-02-23T18:22:04.996Z,0.90
2019-02-23T18:24:32.490Z,0.80
2019-02-23T18:27:00.027Z,0.80
2019-02-23T18:29:27.582Z,0.80
2019-02-23T18:31:56.435Z,0.70
2019-02-23T18:34:23.878Z,0.70
2019-02-23T18:36:51.291Z,0.60
2019-02-23T18:39:18.691Z,0.50
2019-02-23T18:41:46.167Z,0.50
2019-02-23T18:44:16.092Z,0.50
2019-02-23T18:46:43.618Z,0.50
2019-02-23T18:49:11.259Z,0.50
2019-02-23T18:51:38.812Z,0.40
2019-02-23T18:54:06.123Z,0.40
2019-02-23T18:56:33.710Z,0.40
2019-02-23T18:59:01.615Z,0.30
2019-02-23T19:01:32.138Z,0.30
2019-02-23T19:03:59.703Z,0.30
2019-02-23T19:06:27.198Z,0.20
2019-02-23T19:08:54.607Z,0.20
2019-02-23T19:11:22.318Z,0.10
2019-02-23T19:13:49.836Z,0.10
2019-02-23T19:16:17.355Z,0.10
2019-02-23T19:18:44.923Z,0.00
2019-02-23T19:21:12.372Z,0.00
2019-02-23T19:23:39.768Z,0.00
2019-02-23T19:26:07.302Z,0.00
2019-02-23T19:28:42.912Z,0.00
2019-02-23T19:31:04.076Z,0.00
2019-02-23T19:33:31.893Z,-0.10
2019-02-23T19:35:59.446Z,-0.10
2019-02-23T19:38:26.957Z,-0.20
2019-02-23T19:40:54.587Z,-0.20
2019-02-23T19:43:22.012Z,-0.30
2019-02-23T19:45:49.494Z,-0.30
2019-02-23T19:48:17.004Z,-0.30
2019-02-23T19:50:47.969Z,-0.30
2019-02-23T19:53:15.483Z,-0.30
2019-02-23T19:55:42.961Z,-0.40
2019-02-23T19:58:10.740Z,-0.40
2019-02-23T20:00:38.431Z,-0.40
2019-02-23T20:03:06.064Z,-0.40
2019-02-23T20:05:33.515Z,-0.40
2019-02-23T20:08:01.042Z,-0.40
2019-02-23T20:10:28.515Z,-0.50
2019-02-23T20:12:55.932Z,-0.50
2019-02-23T20:15:23.478Z,-0.50
2019-02-23T20:17:50.882Z,-0.50
2019-02-23T20:20:18.299Z,-0.50
2019-02-23T20:22:46.070Z,-0.60
2019-02-23T20:25:13.725Z,-0.60
2019-02-23T20:27:41.122Z,-0.60
2019-02-23T20:30:08.915Z,-0.60
2019-02-23T20:32:36.375Z,-0.70
2019-02-23T20:35:04.209Z,-0.70
2019-02-23T20:37:31.619Z,-0.70
2019-02-23T20:39:59.310Z,-0.70
2019-02-23T20:42:26.783Z,-0.80
2019-02-23T20:44:54.192Z,-0.80
2019-02-23T20:47:21.681Z,-0.80
2019-02-23T20:49:50.278Z,-0.80
2019-02-23T20:52:17.884Z,-0.90
2019-02-23T20:54:45.387Z,-1.10
2019-02-23T20:57:13.998Z,-1.10
2019-02-23T20:59:42.022Z,-1.00
2019-02-23T21:02:09.846Z,-1.10
2019-02-23T21:04:37.294Z,-1.10
2019-02-23T21:07:04.808Z,-1.10
2019-02-23T21:09:32.621Z,-1.10
2019-02-23T21:12:00.126Z,-1.20
2019-02-23T21:14:27.462Z,-1.20
2019-02-23T21:16:55.165Z,-1.20
2019-02-23T21:19:22.715Z,-1.30
2019-02-23T21:21:50.079Z,-1.20
2019-02-23T21:24:18.027Z,-1.30
2019-02-23T21:26:45.428Z,-1.30
2019-02-23T21:29:14.627Z,-1.30
2019-02-23T21:31:42.763Z,-1.30
2019-02-23T21:34:12.177Z,-1.30
2019-02-23T21:36:39.411Z,-1.40
2019-02-23T21:39:07.468Z,-1.30
2019-02-23T21:41:34.771Z,-1.40
2019-02-23T21:44:02.207Z,-1.40
2019-02-23T21:46:29.690Z,-1.40
2019-02-23T21:48:57.099Z,-1.40
2019-02-23T21:51:24.523Z,-1.40
2019-02-23T21:53:51.989Z,-1.50
2019-02-23T21:56:19.559Z,-1.40
2019-02-23T21:58:47.228Z,-1.40
2019-02-23T22:01:15.057Z,-1.40
2019-02-23T22:03:42.465Z,-1.40
2019-02-23T22:06:09.982Z,-1.40
2019-02-23T22:08:37.491Z,-1.40
2019-02-23T22:11:04.893Z,-1.40
2019-02-23T22:13:32.298Z,-1.40
2019-02-23T22:15:59.718Z,-1.40
2019-02-23T22:18:27.129Z,-1.40
2019-02-23T22:20:54.532Z,-1.50
2019-02-23T22:23:21.998Z,-1.50
2019-02-23T22:25:49.501Z,-1.50
2019-02-23T22:28:16.892Z,-1.50
2019-02-23T22:30:44.627Z,-1.50
2019-02-23T22:33:12.073Z,-1.50
2019-02-23T22:35:39.454Z,-1.50
2019-02-23T22:38:06.939Z,-1.50
2019-02-23T22:40:34.324Z,-1.50
2019-02-23T22:43:01.731Z,-1.50
2019-02-23T22:45:29.236Z,-1.50
2019-02-23T22:47:56.659Z,-1.60
2019-02-23T22:50:24.062Z,-1.60
2019-02-23T22:52:51.883Z,-1.50
2019-02-23T22:55:19.286Z,-1.50
2019-02-23T22:57:46.691Z,-1.60
2019-02-23T23:00:17.363Z,-1.60
2019-02-23T23:02:45.323Z,-1.70
2019-02-23T23:05:12.716Z,-1.80
2019-02-23T23:07:40.156Z,-1.80
2019-02-23T23:10:07.662Z,-1.90
2019-02-23T23:12:35.095Z,-1.90
2019-02-23T23:15:02.939Z,-1.90
2019-02-23T23:17:30.386Z,-2.00
2019-02-23T23:19:57.836Z,-2.00
2019-02-23T23:22:25.294Z,-2.10
2019-02-23T23:24:52.695Z,-2.10
2019-02-23T23:27:20.102Z,-2.10
2019-02-23T23:29:47.582Z,-2.10
2019-02-23T23:32:14.990Z,-2.10
2019-02-23T23:34:42.406Z,-2.10
2019-02-23T23:37:10.294Z,-2.10
2019-02-23T23:39:37.790Z,-2.20
2019-02-23T23:42:05.252Z,-2.10
2019-02-23T23:44:32.947Z,-2.20
2019-02-23T23:47:00.339Z,-2.20
2019-02-23T23:49:28.146Z,-2.20
2019-02-23T23:51:55.583Z,-2.30
2019-02-23T23:54:22.981Z,-2.30
2019-02-23T23:56:50.379Z,-2.30
2019-02-23T23:59:17.975Z,-2.30
